createdAt,value
2022-10-27T00:04:48.921Z,53
2022-10-27T00:10:07.183Z,52.9
2022-10-27T00:15:25.923Z,52.4
2022-10-27T00:20:44.415Z,52.3
2022-10-27T00:26:02.936Z,52.5
2022-10-27T00:31:21.409Z,53.1
2022-10-27T00:36:39.826Z,53
2022-10-27T00:41:58.311Z,53
2022-10-27T00:47:16.505Z,52.6
2022-10-27T00:52:35.005Z,52.7
2022-10-27T00:57:54.593Z,52.8
2022-10-27T01:03:13.403Z,52.4
2022-10-27T01:08:32.170Z,52.2
2022-10-27T01:13:50.685Z,52.1
2022-10-27T01:19:08.887Z,52.2
2022-10-27T01:24:27.659Z,51.9
2022-10-27T01:29:46.180Z,52.2
2022-10-27T01:35:04.638Z,52.9
2022-10-27T01:40:22.848Z,51.7
2022-10-27T01:45:40.798Z,52
2022-10-27T01:51:03.014Z,51.9
2022-10-27T01:56:21.238Z,53.1
2022-10-27T02:01:40.027Z,52
2022-10-27T02:06:58.493Z,51.8
2022-10-27T02:12:16.969Z,52.5
2022-10-27T02:17:35.484Z,51.7
2022-10-27T02:22:54.832Z,52.6
2022-10-27T02:28:13.187Z,52
2022-10-27T02:33:31.158Z,52.6
2022-10-27T02:38:49.625Z,52.7
2022-10-27T02:44:08.393Z,51.8
2022-10-27T02:49:26.927Z,51.8
2022-10-27T02:54:45.671Z,51.9
2022-10-27T03:00:04.444Z,52
2022-10-27T03:05:23.238Z,53
2022-10-27T03:10:41.989Z,52.2
2022-10-27T03:16:00.476Z,52.8
2022-10-27T03:21:18.428Z,52.6
2022-10-27T03:26:36.609Z,52
2022-10-27T03:31:55.088Z,51.9
2022-10-27T03:37:13.332Z,51.8
2022-10-27T03:42:31.786Z,52
2022-10-27T03:47:50.000Z,52
2022-10-27T03:53:07.960Z,52.1
2022-10-27T03:58:26.148Z,52.8
2022-10-27T04:03:44.925Z,51.8
2022-10-27T04:14:22.429Z,51.7
2022-10-27T04:19:40.634Z,51.9
2022-10-27T04:24:59.429Z,52.2
2022-10-27T04:30:17.899Z,52.1
2022-10-27T04:35:36.390Z,51.9
2022-10-27T04:40:55.087Z,42
2022-10-27T04:46:13.270Z,42.7
2022-10-27T04:51:31.753Z,42.4
2022-10-27T04:56:50.259Z,40.9
2022-10-27T05:02:08.843Z,41.6
2022-10-27T05:07:27.591Z,44.9
2022-10-27T05:12:45.821Z,46.2
2022-10-27T05:18:10.687Z,47.3
2022-10-27T05:23:29.165Z,47.9
2022-10-27T05:28:47.777Z,47.5
2022-10-27T05:34:06.285Z,47.6
2022-10-27T05:39:24.758Z,48.1
2022-10-27T05:44:43.279Z,48.3
2022-10-27T05:50:01.754Z,48.4
2022-10-27T05:55:23.087Z,49.3
2022-10-27T06:00:41.334Z,49.5
2022-10-27T06:05:59.798Z,49.6
2022-10-27T06:11:18.585Z,48.9
2022-10-27T06:16:36.805Z,49.7
2022-10-27T06:21:54.990Z,49.8
2022-10-27T06:27:13.210Z,49.8
2022-10-27T06:32:32.050Z,49.6
2022-10-27T06:37:50.509Z,49.1
2022-10-27T06:43:09.698Z,49.3
2022-10-27T06:48:28.123Z,49.5
2022-10-27T06:53:46.292Z,49.3
2022-10-27T06:59:05.058Z,49.3
2022-10-27T07:04:23.036Z,49.8
2022-10-27T07:09:41.509Z,50.1
2022-10-27T07:14:59.987Z,50.2
2022-10-27T07:20:18.531Z,49.5
2022-10-27T07:25:37.532Z,50.1
2022-10-27T07:30:56.075Z,49.9
2022-10-27T07:36:14.675Z,49.3
2022-10-27T07:41:32.865Z,50
2022-10-27T07:46:50.792Z,49.9
2022-10-27T07:52:09.032Z,50
2022-10-27T07:57:27.773Z,49.7
2022-10-27T08:02:46.537Z,49.9
2022-10-27T08:08:05.074Z,49.7
2022-10-27T08:13:23.580Z,50
2022-10-27T08:18:41.807Z,49.3
2022-10-27T08:24:00.052Z,49.9
2022-10-27T08:29:18.230Z,49.6
2022-10-27T08:34:37.005Z,49.1
2022-10-27T08:39:55.248Z,48.9
2022-10-27T08:45:13.979Z,49.8
2022-10-27T08:50:32.176Z,49
2022-10-27T08:55:50.688Z,49
2022-10-27T09:01:09.250Z,49.7
2022-10-27T09:06:27.853Z,49.1
2022-10-27T09:11:46.110Z,48.9
2022-10-27T09:17:04.843Z,49.1
2022-10-27T09:22:23.631Z,49.2
2022-10-27T09:27:41.968Z,49.1
2022-10-27T09:33:00.147Z,49
2022-10-27T09:38:18.366Z,49.8
2022-10-27T09:43:36.896Z,49.6
2022-10-27T09:48:55.365Z,49.7
2022-10-27T09:54:14.142Z,49.2
2022-10-27T09:59:32.406Z,48.8
2022-10-27T10:04:51.148Z,49.4
2022-10-27T10:10:09.642Z,49.7
2022-10-27T10:15:28.575Z,49.7
2022-10-27T10:20:46.770Z,49.6
2022-10-27T10:26:04.694Z,49.8
2022-10-27T10:31:23.481Z,49.8
2022-10-27T10:36:42.228Z,49.5
2022-10-27T10:42:00.435Z,48.9
2022-10-27T10:47:18.667Z,49.8
2022-10-27T10:52:36.854Z,49.7
2022-10-27T10:57:55.500Z,49
2022-10-27T11:03:13.979Z,49.7
2022-10-27T11:08:33.189Z,49.7
2022-10-27T11:13:53.407Z,48.9
2022-10-27T11:19:11.654Z,49.7
2022-10-27T11:24:30.383Z,49.8
2022-10-27T11:29:49.158Z,49.6
2022-10-27T11:35:08.060Z,48.9
2022-10-27T11:40:26.367Z,49
2022-10-27T11:45:44.857Z,49.6
2022-10-27T11:51:03.119Z,48.8
2022-10-27T11:56:21.859Z,49.5
2022-10-27T12:01:40.852Z,49.2
2022-10-27T12:06:59.715Z,48.6
2022-10-27T12:12:18.171Z,48.7
2022-10-27T12:17:36.091Z,49.4
2022-10-27T12:22:56.471Z,49.5
2022-10-27T12:28:14.581Z,49.5
2022-10-27T12:33:33.167Z,49.8
2022-10-27T12:38:51.690Z,49.8
2022-10-27T12:44:09.877Z,49.3
2022-10-27T12:49:28.654Z,49.9
2022-10-27T13:00:05.688Z,49.6
2022-10-27T13:05:08.869Z,48.8
2022-10-27T13:10:34.521Z,48.8
2022-10-27T13:15:54.943Z,49.6
2022-10-27T13:21:13.707Z,49.6
2022-10-27T13:26:32.259Z,49.5
2022-10-27T13:31:50.441Z,48.9
2022-10-27T13:37:08.955Z,50.1
2022-10-27T13:42:27.533Z,48.8
2022-10-27T13:47:46.382Z,48.4
2022-10-27T13:53:04.876Z,48.8
2022-10-27T13:58:23.132Z,48.6
2022-10-27T14:03:41.325Z,49.7
2022-10-27T14:08:59.811Z,49.5
2022-10-27T14:14:18.191Z,49.3
2022-10-27T14:19:36.626Z,49.7
2022-10-27T14:24:54.831Z,49.6
2022-10-27T14:30:13.346Z,49.7
2022-10-27T14:35:31.816Z,48.7
2022-10-27T14:40:50.024Z,48.7
2022-10-27T14:46:08.425Z,48.5
2022-10-27T14:51:26.869Z,49.3
2022-10-27T14:56:45.345Z,49.6
2022-10-27T15:01:48.545Z,48.8
2022-10-27T15:07:06.805Z,49.5
2022-10-27T15:12:25.288Z,49.1
2022-10-27T15:17:43.640Z,48.9
2022-10-27T15:23:02.374Z,49.4
2022-10-27T15:28:20.868Z,49.1
2022-10-27T15:33:39.171Z,49.6
2022-10-27T15:38:57.954Z,49.2
2022-10-27T15:44:16.730Z,50
2022-10-27T15:49:34.960Z,49
2022-10-27T15:54:52.869Z,49.6
2022-10-27T16:00:11.357Z,49.1
2022-10-27T16:05:29.601Z,48.3
2022-10-27T16:10:48.354Z,47.8
2022-10-27T16:16:07.125Z,47.5
2022-10-27T16:21:26.136Z,47.7
2022-10-27T16:26:44.694Z,47.4
2022-10-27T16:32:03.166Z,48.3
2022-10-27T16:37:21.459Z,48.4
2022-10-27T16:42:39.928Z,48.4
2022-10-27T16:47:58.410Z,47.8
2022-10-27T16:53:16.921Z,48
2022-10-27T16:58:35.694Z,48.8
2022-10-27T17:03:53.889Z,50
2022-10-27T17:09:12.411Z,48.6
2022-10-27T17:14:31.150Z,48.4
2022-10-27T17:19:49.630Z,49.5
2022-10-27T17:25:08.440Z,49
2022-10-27T17:30:26.637Z,47.8
2022-10-27T17:35:45.084Z,46.3
2022-10-27T17:41:03.614Z,44.8
2022-10-27T17:46:22.454Z,45.3
2022-10-27T17:51:40.649Z,46.9
2022-10-27T17:56:59.150Z,46.6
2022-10-27T18:02:17.624Z,47.5
2022-10-27T18:07:36.072Z,47.3
2022-10-27T18:12:55.792Z,47.3
2022-10-27T18:18:14.258Z,47.4
2022-10-27T18:23:33.007Z,48.1
2022-10-27T18:28:51.525Z,49.1
2022-10-27T18:34:09.942Z,48.7
2022-10-27T18:39:28.395Z,49.3
2022-10-27T18:44:46.614Z,49
2022-10-27T18:50:11.177Z,49.5
2022-10-27T18:55:37.210Z,48.9
2022-10-27T19:00:56.034Z,48.9
2022-10-27T19:06:14.508Z,49.3
2022-10-27T19:11:33.238Z,48.7
2022-10-27T19:16:56.191Z,48.7
2022-10-27T19:22:14.632Z,49.3
2022-10-27T19:27:33.114Z,50
2022-10-27T19:32:52.198Z,49
2022-10-27T19:38:10.766Z,50.1
2022-10-27T19:43:29.515Z,49.4
2022-10-27T19:48:48.048Z,50
2022-10-27T19:54:14.130Z,49.9
2022-10-27T19:59:33.076Z,50.8
2022-10-27T20:04:51.354Z,50.6
2022-10-27T20:10:09.816Z,50.9
2022-10-27T20:15:27.745Z,50.4
2022-10-27T20:20:45.943Z,50.7
2022-10-27T20:26:36.080Z,51.3
2022-10-27T20:31:54.561Z,50.5
2022-10-27T20:37:12.805Z,51.4
2022-10-27T20:42:31.520Z,51.6
2022-10-27T20:47:50.291Z,50.9
2022-10-27T20:53:08.606Z,51.8
2022-10-27T20:58:27.347Z,50.9
2022-10-27T21:03:45.571Z,51
2022-10-27T21:09:04.340Z,51.1
2022-10-27T21:14:22.668Z,51.7
2022-10-27T21:19:41.120Z,51.9
2022-10-27T21:24:59.595Z,51.2
2022-10-27T21:30:18.099Z,51.8
2022-10-27T21:35:36.562Z,51
2022-10-27T21:40:54.786Z,51
2022-10-27T21:46:13.523Z,51.6
2022-10-27T21:51:32.299Z,50.8
2022-10-27T21:56:50.827Z,52.1
2022-10-27T22:02:09.806Z,51.1
2022-10-27T22:07:28.023Z,51.8
2022-10-27T22:12:46.783Z,51.7
2022-10-27T22:18:05.243Z,51.2
2022-10-27T22:23:23.458Z,51.4
2022-10-27T22:28:41.962Z,51.9
2022-10-27T22:34:00.168Z,52.1
2022-10-27T22:39:18.639Z,52.1
2022-10-27T22:44:36.934Z,51.3
2022-10-27T22:49:58.381Z,52.2
2022-10-27T22:55:16.857Z,52.3
2022-10-27T23:00:35.116Z,52.2
2022-10-27T23:05:53.300Z,51.5
2022-10-27T23:11:11.495Z,51.8
2022-10-27T23:16:30.021Z,52.1
2022-10-27T23:21:48.257Z,53.1
2022-10-27T23:27:06.178Z,52.7
2022-10-27T23:32:24.698Z,53.1
2022-10-27T23:37:42.595Z,52.3
2022-10-27T23:43:01.084Z,52.6
2022-10-27T23:48:19.677Z,52.9
2022-10-27T23:53:37.555Z,52.3
2022-10-27T23:58:55.760Z,53.1
